createdAt,value
2023-04-25T00:01:00.297Z,3.33
2023-04-25T00:03:34.124Z,3.33
2023-04-25T00:06:07.721Z,3.33
2023-04-25T00:08:41.016Z,3.20
2023-04-25T00:11:15.327Z,3.10
2023-04-25T00:13:50.904Z,3.25
2023-04-25T00:16:24.917Z,3.72
2023-04-25T00:18:57.767Z,3.22
2023-04-25T00:21:32.524Z,3.53
2023-04-25T00:24:05.767Z,3.33
2023-04-25T00:26:40.396Z,3.60
2023-04-25T00:29:13.526Z,3.65
2023-04-25T00:31:48.755Z,3.55
2023-04-25T00:34:21.919Z,3.30
2023-04-25T00:36:54.939Z,3.55
2023-04-25T00:39:28.010Z,3.75
2023-04-25T00:42:02.996Z,3.35
2023-04-25T00:44:37.779Z,3.80
2023-04-25T00:47:10.746Z,4.20
2023-04-25T00:49:43.633Z,3.85
2023-04-25T00:52:16.531Z,4.15
2023-04-25T00:54:49.610Z,4.20
2023-04-25T00:57:23.942Z,3.88
2023-04-25T00:59:57.031Z,4.22
2023-04-25T01:02:31.126Z,4.20
2023-04-25T01:05:04.753Z,4.50
2023-04-25T01:07:37.726Z,4.90
2023-04-25T01:10:11.311Z,4.15
2023-04-25T01:12:45.552Z,4.35
2023-04-25T01:15:18.459Z,4.57
2023-04-25T01:17:51.625Z,4.53
2023-04-25T01:20:26.006Z,4.15
2023-04-25T01:23:00.277Z,4.38
2023-04-25T01:25:33.599Z,3.85
2023-04-25T01:28:07.054Z,3.55
2023-04-25T01:30:41.069Z,4.22
2023-04-25T01:33:16.134Z,3.58
2023-04-25T01:35:49.291Z,3.90
2023-04-25T01:38:23.533Z,3.63
2023-04-25T01:40:57.320Z,3.80
2023-04-25T01:43:30.218Z,3.40
2023-04-25T01:46:03.377Z,4.20
2023-04-25T01:48:36.289Z,3.85
2023-04-25T01:51:09.180Z,3.63
2023-04-25T01:53:44.559Z,4.05
2023-04-25T01:56:17.812Z,5.00
2023-04-25T01:58:51.146Z,4.65
2023-04-25T02:01:26.999Z,4.50
2023-04-25T02:04:18.373Z,4.07
2023-04-25T02:06:51.503Z,4.45
2023-04-25T02:09:26.036Z,4.05
2023-04-25T02:12:02.972Z,4.22
2023-04-25T02:14:59.712Z,4.95
2023-04-25T02:17:41.740Z,4.97
2023-04-25T02:20:14.887Z,4.60
2023-04-25T02:22:48.158Z,5.03
2023-04-25T02:25:23.026Z,4.75
2023-04-25T02:27:56.241Z,4.88
2023-04-25T02:30:30.152Z,5.03
2023-04-25T02:33:03.697Z,4.63
2023-04-25T02:35:36.985Z,5.18
2023-04-25T02:38:10.379Z,5.35
2023-04-25T02:40:45.532Z,5.00
2023-04-25T02:43:18.911Z,4.78
2023-04-25T02:45:52.003Z,5.38
2023-04-25T02:48:25.286Z,5.60
2023-04-25T02:50:58.538Z,5.00
2023-04-25T02:53:32.233Z,4.88
2023-04-25T02:56:07.523Z,5.00
2023-04-25T02:58:40.884Z,5.65
2023-04-25T03:01:14.981Z,5.43
2023-04-25T03:03:48.341Z,4.85
2023-04-25T03:06:21.714Z,4.60
2023-04-25T03:08:54.684Z,4.90
2023-04-25T03:11:29.249Z,4.60
2023-04-25T03:14:04.351Z,5.38
2023-04-25T03:16:37.507Z,4.63
2023-04-25T03:19:10.730Z,4.43
2023-04-25T03:21:44.117Z,4.28
2023-04-25T03:24:17.459Z,4.07
2023-04-25T03:26:52.369Z,3.78
2023-04-25T03:29:27.527Z,3.80
2023-04-25T03:32:02.292Z,3.80
2023-04-25T03:34:35.317Z,3.55
2023-04-25T03:37:08.507Z,3.83
2023-04-25T03:39:44.883Z,4.38
2023-04-25T03:42:19.741Z,3.60
2023-04-25T03:44:53.919Z,4.85
2023-04-25T03:47:27.763Z,3.67
2023-04-25T03:50:02.793Z,4.45
2023-04-25T03:52:36.063Z,3.25
2023-04-25T03:55:10.822Z,3.67
2023-04-25T03:57:46.131Z,3.50
2023-04-25T04:00:19.525Z,3.50
2023-04-25T04:02:57.561Z,3.30
2023-04-25T04:05:30.922Z,2.90
2023-04-25T04:08:05.153Z,2.63
2023-04-25T04:10:38.366Z,2.88
2023-04-25T04:13:12.949Z,2.90
2023-04-25T04:15:46.136Z,3.22
2023-04-25T04:18:19.883Z,2.88
2023-04-25T04:20:52.951Z,2.83
2023-04-25T04:23:28.397Z,3.20
2023-04-25T04:26:02.073Z,3.38
2023-04-25T04:28:55.452Z,3.28
2023-04-25T04:31:47.124Z,3.70
2023-04-25T04:34:20.218Z,3.85
2023-04-25T04:36:53.543Z,3.80
2023-04-25T04:39:27.065Z,3.30
2023-04-25T04:42:09.686Z,2.90
2023-04-25T04:44:53.193Z,3.20
2023-04-25T04:47:44.988Z,3.78
2023-04-25T04:50:23.147Z,3.60
2023-04-25T04:53:31.850Z,3.90
2023-04-25T04:56:24.710Z,4.03
2023-04-25T04:59:18.229Z,4.20
2023-04-25T05:02:07.220Z,3.97
2023-04-25T05:04:59.276Z,3.25
2023-04-25T05:08:04.877Z,3.60
2023-04-25T05:10:56.851Z,3.60
2023-04-25T05:13:39.902Z,0.75
2023-04-25T05:18:07.462Z,1.10
2023-04-25T05:20:54.539Z,0.00
2023-04-25T05:26:54.597Z,0.00
2023-04-25T05:29:53.854Z,0.00
2023-04-25T05:32:37.712Z,0.00
2023-04-25T05:35:11.131Z,0.00
2023-04-25T05:37:51.637Z,0.00
2023-04-25T05:40:26.789Z,0.00
2023-04-25T05:43:26.649Z,0.00
2023-04-25T05:46:16.813Z,0.00
2023-04-25T05:48:58.662Z,0.00
2023-04-25T05:51:49.893Z,0.00
2023-04-25T05:54:42.881Z,0.00
2023-04-25T05:57:22.219Z,0.00
2023-04-25T05:59:56.050Z,0.00
2023-04-25T06:02:33.199Z,0.00
2023-04-25T06:05:06.984Z,0.00
2023-04-25T06:07:40.398Z,0.00
2023-04-25T06:10:14.849Z,0.22
2023-04-25T06:12:48.895Z,0.00
2023-04-25T06:15:28.454Z,0.00
2023-04-25T06:18:02.225Z,0.00
2023-04-25T06:20:35.160Z,0.00
2023-04-25T06:23:08.452Z,0.00
2023-04-25T06:25:54.149Z,0.00
2023-04-25T06:28:27.732Z,0.00
2023-04-25T06:31:00.617Z,0.00
2023-04-25T06:33:33.861Z,0.57
2023-04-25T06:36:07.565Z,0.00
2023-04-25T06:38:41.503Z,0.00
2023-04-25T06:41:15.778Z,0.00
2023-04-25T06:43:48.924Z,0.00
2023-04-25T06:46:34.820Z,0.00
2023-04-25T06:49:07.684Z,0.00
2023-04-25T06:51:41.241Z,0.00
2023-04-25T06:54:14.594Z,0.00
2023-04-25T06:56:58.877Z,0.00
2023-04-25T06:59:33.841Z,0.30
2023-04-25T07:02:07.061Z,0.00
2023-04-25T07:04:47.952Z,0.10
2023-04-25T07:07:23.630Z,0.00
2023-04-25T07:12:36.445Z,0.00
2023-04-25T07:15:11.092Z,0.00
2023-04-25T07:17:46.315Z,0.00
2023-04-25T07:20:19.436Z,0.00
2023-04-25T07:22:55.031Z,0.08
2023-04-25T07:25:28.225Z,0.00
2023-04-25T07:28:03.606Z,0.00
2023-04-25T07:30:36.865Z,0.00
2023-04-25T07:33:10.885Z,0.00
2023-04-25T07:35:43.736Z,0.00
2023-04-25T07:38:17.821Z,0.00
2023-04-25T07:40:51.085Z,0.00
2023-04-25T07:43:25.379Z,0.00
2023-04-25T07:46:03.818Z,0.00
2023-04-25T07:48:39.163Z,0.00
2023-04-25T07:51:12.481Z,0.00
2023-04-25T07:53:46.226Z,0.30
2023-04-25T07:56:21.833Z,0.00
2023-04-25T07:58:57.359Z,0.47
2023-04-25T08:01:31.001Z,0.00
2023-04-25T08:04:07.773Z,0.00
2023-04-25T08:07:06.783Z,0.00
2023-04-25T08:09:47.722Z,0.00
2023-04-25T08:12:28.920Z,0.00
2023-04-25T08:15:04.447Z,0.00
2023-04-25T08:17:41.548Z,0.00
2023-04-25T08:20:14.647Z,0.00
2023-04-25T08:22:49.612Z,0.00
2023-04-25T08:25:41.281Z,0.00
2023-04-25T08:28:16.279Z,0.35
2023-04-25T08:30:55.808Z,0.00
2023-04-25T08:33:39.020Z,0.00
2023-04-25T08:36:38.722Z,0.20
2023-04-25T08:39:23.901Z,0.00
2023-04-25T08:42:17.484Z,0.70
2023-04-25T08:44:50.465Z,0.00
2023-04-25T08:47:28.931Z,0.10
2023-04-25T08:50:06.480Z,0.00
2023-04-25T08:52:45.635Z,0.00
2023-04-25T08:55:19.232Z,0.00
2023-04-25T08:57:53.690Z,0.00
2023-04-25T09:00:27.390Z,0.00
2023-04-25T09:03:03.538Z,0.15
2023-04-25T09:05:39.788Z,0.00
2023-04-25T09:08:12.748Z,0.00
2023-04-25T09:10:46.005Z,0.00
2023-04-25T09:13:27.849Z,0.00
2023-04-25T09:16:23.656Z,2.50
2023-04-25T09:19:38.881Z,2.38
2023-04-25T09:22:22.624Z,1.80
2023-04-25T09:24:55.412Z,1.65
2023-04-25T09:27:31.956Z,1.95
2023-04-25T09:30:17.351Z,1.98
2023-04-25T09:33:14.400Z,1.65
2023-04-25T09:35:56.618Z,2.45
2023-04-25T09:38:43.902Z,1.90
2023-04-25T09:41:25.759Z,2.17
2023-04-25T09:44:01.534Z,2.25
2023-04-25T09:49:23.341Z,1.95
2023-04-25T09:52:19.725Z,2.63
2023-04-25T09:55:16.954Z,1.63
2023-04-25T09:57:54.588Z,2.08
2023-04-25T10:00:28.294Z,1.77
2023-04-25T10:03:04.758Z,1.60
2023-04-25T10:06:05.352Z,2.05
2023-04-25T10:08:40.468Z,1.88
2023-04-25T10:11:15.433Z,1.70
2023-04-25T10:13:49.108Z,1.88
2023-04-25T10:16:23.217Z,1.90
2023-04-25T10:18:56.828Z,2.05
2023-04-25T10:21:37.627Z,2.47
2023-04-25T10:24:11.956Z,2.17
2023-04-25T10:26:45.020Z,1.90
2023-04-25T10:29:25.249Z,2.05
2023-04-25T10:31:59.258Z,1.70
2023-04-25T10:34:41.672Z,2.20
2023-04-25T10:37:15.269Z,2.03
2023-04-25T10:39:49.522Z,2.28
2023-04-25T10:42:22.274Z,1.80
2023-04-25T10:45:04.393Z,1.98
2023-04-25T10:47:38.239Z,2.10
2023-04-25T10:50:11.901Z,2.17
2023-04-25T10:52:45.200Z,2.10
2023-04-25T10:55:19.404Z,2.28
2023-04-25T10:57:52.531Z,3.35
2023-04-25T11:00:34.151Z,2.08
2023-04-25T11:03:19.033Z,2.28
2023-04-25T11:05:58.187Z,2.10
2023-04-25T11:08:48.881Z,2.10
2023-04-25T11:13:56.099Z,1.90
2023-04-25T11:16:29.329Z,1.60
2023-04-25T11:19:02.282Z,1.90
2023-04-25T11:21:35.256Z,1.80
2023-04-25T11:24:08.485Z,1.75
2023-04-25T11:26:43.683Z,1.52
2023-04-25T11:29:16.456Z,1.58
2023-04-25T11:31:49.336Z,1.70
2023-04-25T11:34:22.199Z,1.98
2023-04-25T11:36:55.726Z,1.70
2023-04-25T11:39:29.043Z,1.73
2023-04-25T11:42:05.804Z,1.60
2023-04-25T11:44:40.906Z,1.63
2023-04-25T11:47:13.715Z,1.70
2023-04-25T11:49:46.567Z,1.80
2023-04-25T11:52:19.495Z,1.67
2023-04-25T11:54:59.829Z,1.85
2023-04-25T11:57:34.727Z,2.00
2023-04-25T12:00:16.483Z,1.83
2023-04-25T12:03:04.052Z,1.40
2023-04-25T12:05:38.985Z,1.90
2023-04-25T12:08:14.020Z,1.80
2023-04-25T12:10:48.335Z,3.45
2023-04-25T12:13:26.977Z,1.80
2023-04-25T12:15:59.944Z,2.72
2023-04-25T12:18:33.421Z,1.95
2023-04-25T12:21:06.780Z,2.58
2023-04-25T12:23:42.957Z,2.03
2023-04-25T12:26:16.700Z,1.60
2023-04-25T12:28:51.097Z,1.50
2023-04-25T12:31:24.596Z,2.00
2023-04-25T12:33:58.822Z,1.67
2023-04-25T12:36:32.201Z,1.92
2023-04-25T12:39:05.509Z,1.90
2023-04-25T12:41:38.781Z,1.90
2023-04-25T12:44:13.298Z,1.80
2023-04-25T12:46:46.245Z,1.77
2023-04-25T12:52:12.114Z,2.00
2023-04-25T12:54:45.082Z,2.00
2023-04-25T12:55:52.576Z,1.98
2023-04-25T12:57:17.883Z,1.88
2023-04-25T12:59:51.979Z,1.80
2023-04-25T13:02:24.899Z,1.77
2023-04-25T13:04:57.986Z,1.58
2023-04-25T13:07:31.193Z,3.00
2023-04-25T13:10:04.562Z,2.00
2023-04-25T13:12:37.641Z,2.35
2023-04-25T13:15:15.311Z,2.33
2023-04-25T13:17:49.299Z,2.42
2023-04-25T13:20:23.479Z,2.22
2023-04-25T13:22:56.586Z,2.33
2023-04-25T13:25:29.569Z,2.25
2023-04-25T13:28:02.679Z,2.60
2023-04-25T13:30:37.362Z,2.05
2023-04-25T13:33:11.595Z,2.65
2023-04-25T13:35:47.820Z,2.47
2023-04-25T13:38:20.861Z,2.67
2023-04-25T13:40:54.442Z,2.75
2023-04-25T13:43:27.638Z,2.75
2023-04-25T13:46:04.270Z,3.00
2023-04-25T13:48:37.278Z,2.53
2023-04-25T13:51:10.060Z,3.60
2023-04-25T13:53:42.930Z,2.63
2023-04-25T13:56:16.379Z,2.47
2023-04-25T13:58:49.436Z,3.22
2023-04-25T14:01:23.625Z,2.67
2023-04-25T14:03:56.476Z,2.30
2023-04-25T14:06:29.391Z,2.70
2023-04-25T14:09:02.592Z,3.03
2023-04-25T14:11:35.416Z,2.47
2023-04-25T14:14:08.259Z,3.17
2023-04-25T14:16:42.496Z,2.88
2023-04-25T14:19:15.438Z,3.00
2023-04-25T14:21:48.423Z,3.15
2023-04-25T14:24:21.647Z,3.50
2023-04-25T14:26:54.422Z,3.22
2023-04-25T14:29:27.226Z,3.22
2023-04-25T14:32:01.387Z,3.60
2023-04-25T14:34:34.207Z,3.60
2023-04-25T14:37:08.083Z,3.70
2023-04-25T14:39:41.472Z,3.53
2023-04-25T14:42:14.277Z,3.50
2023-04-25T14:44:47.362Z,2.63
2023-04-25T14:47:21.902Z,2.72
2023-04-25T14:49:55.211Z,3.75
2023-04-25T14:52:28.195Z,3.08
2023-04-25T14:55:06.007Z,3.22
2023-04-25T14:57:40.358Z,2.67
2023-04-25T15:00:17.164Z,2.97
2023-04-25T15:02:51.559Z,2.58
2023-04-25T15:05:24.801Z,2.53
2023-04-25T15:07:57.641Z,2.97
2023-04-25T15:10:30.952Z,2.90
2023-04-25T15:13:04.135Z,2.15
2023-04-25T15:15:37.183Z,2.72
2023-04-25T15:18:11.395Z,2.42
2023-04-25T15:20:44.491Z,2.42
2023-04-25T15:23:17.486Z,2.40
2023-04-25T15:25:52.596Z,2.10
2023-04-25T15:28:25.719Z,1.98
2023-04-25T15:30:58.578Z,2.28
2023-04-25T15:33:33.328Z,1.70
2023-04-25T15:36:07.364Z,2.08
2023-04-25T15:38:40.393Z,1.83
2023-04-25T15:41:14.287Z,2.20
2023-04-25T15:43:49.740Z,1.95
2023-04-25T15:46:23.970Z,2.40
2023-04-25T15:48:58.413Z,1.77
2023-04-25T15:51:31.828Z,1.95
2023-04-25T15:54:05.626Z,2.00
2023-04-25T15:56:38.609Z,2.35
2023-04-25T15:59:11.570Z,1.90
2023-04-25T16:01:45.199Z,1.88
2023-04-25T16:04:19.610Z,2.28
2023-04-25T16:06:52.486Z,3.55
2023-04-25T16:09:25.374Z,2.55
2023-04-25T16:11:58.694Z,2.83
2023-04-25T16:14:31.894Z,2.72
2023-04-25T16:17:04.907Z,2.03
2023-04-25T16:19:39.301Z,2.33
2023-04-25T16:22:16.125Z,1.80
2023-04-25T16:24:49.347Z,1.75
2023-04-25T16:27:22.332Z,2.03
2023-04-25T16:29:55.376Z,1.90
2023-04-25T16:32:28.383Z,2.10
2023-04-25T16:35:02.761Z,1.88
2023-04-25T16:37:35.623Z,2.67
2023-04-25T16:40:10.006Z,2.28
2023-04-25T16:42:43.162Z,1.98
2023-04-25T16:45:17.864Z,1.92
2023-04-25T16:47:50.891Z,2.08
2023-04-25T16:50:25.194Z,2.10
2023-04-25T16:52:57.972Z,5.95
2023-04-25T16:55:30.759Z,4.85
2023-04-25T16:58:04.082Z,3.90
2023-04-25T17:00:36.961Z,3.38
2023-04-25T17:03:09.940Z,2.65
2023-04-25T17:05:44.460Z,2.90
2023-04-25T17:08:17.410Z,2.65
2023-04-25T17:10:51.027Z,2.40
2023-04-25T17:13:30.859Z,2.20
2023-04-25T17:16:06.488Z,1.95
2023-04-25T17:18:39.328Z,2.70
2023-04-25T17:21:13.945Z,3.13
2023-04-25T17:23:49.761Z,3.58
2023-04-25T17:26:22.880Z,2.28
2023-04-25T17:28:55.854Z,2.38
2023-04-25T17:31:28.722Z,3.05
2023-04-25T17:34:01.652Z,2.53
2023-04-25T17:36:35.928Z,2.60
2023-04-25T17:39:11.000Z,2.70
2023-04-25T17:41:44.210Z,2.70
2023-04-25T17:44:16.960Z,2.28
2023-04-25T17:46:49.808Z,2.15
2023-04-25T17:49:22.623Z,2.05
2023-04-25T17:51:56.866Z,2.47
2023-04-25T17:54:29.865Z,2.55
2023-04-25T17:57:02.687Z,2.10
2023-04-25T17:59:35.664Z,2.28
2023-04-25T18:02:09.118Z,2.85
2023-04-25T18:04:42.229Z,6.35
2023-04-25T18:07:17.095Z,5.53
2023-04-25T18:09:49.934Z,3.20
2023-04-25T18:12:22.992Z,3.05
2023-04-25T18:14:55.868Z,3.67
2023-04-25T18:17:28.930Z,2.55
2023-04-25T18:20:02.210Z,2.55
2023-04-25T18:22:38.381Z,3.25
2023-04-25T18:25:11.692Z,3.83
2023-04-25T18:27:45.916Z,3.17
2023-04-25T18:30:19.349Z,3.75
2023-04-25T18:32:52.345Z,3.40
2023-04-25T18:35:27.568Z,3.45
2023-04-25T18:38:01.931Z,3.10
2023-04-25T18:40:35.199Z,3.00
2023-04-25T18:43:10.605Z,2.70
2023-04-25T18:45:43.584Z,3.20
2023-04-25T18:48:16.585Z,2.97
2023-04-25T18:50:49.552Z,2.90
2023-04-25T18:53:23.981Z,3.00
2023-04-25T18:55:57.138Z,2.53
2023-04-25T18:58:29.888Z,2.75
2023-04-25T19:01:03.845Z,2.75
2023-04-25T19:03:37.562Z,2.85
2023-04-25T19:06:10.786Z,3.22
2023-04-25T19:08:44.912Z,2.92
2023-04-25T19:11:21.080Z,3.35
2023-04-25T19:13:56.604Z,3.35
2023-04-25T19:16:29.464Z,3.38
2023-04-25T19:19:02.349Z,3.63
2023-04-25T19:21:35.899Z,2.40
2023-04-25T19:24:11.150Z,3.00
2023-04-25T19:26:44.656Z,3.50
2023-04-25T19:29:18.224Z,3.17
2023-04-25T19:31:53.604Z,2.85
2023-04-25T19:34:27.027Z,3.28
2023-04-25T19:36:59.889Z,3.38
2023-04-25T19:40:25.720Z,3.33
2023-04-25T19:43:02.911Z,3.70
2023-04-25T19:45:35.811Z,3.30
2023-04-25T19:48:10.568Z,3.35
2023-04-25T19:50:43.556Z,3.58
2023-04-25T19:53:16.849Z,3.22
2023-04-25T19:55:49.962Z,3.00
2023-04-25T19:58:24.572Z,2.97
2023-04-25T20:00:58.316Z,3.00
2023-04-25T20:03:32.022Z,2.78
2023-04-25T20:06:05.316Z,3.15
2023-04-25T20:08:38.446Z,3.38
2023-04-25T20:11:12.190Z,3.35
2023-04-25T20:13:46.483Z,3.17
2023-04-25T20:16:20.534Z,3.17
2023-04-25T20:18:54.355Z,2.97
2023-04-25T20:21:28.905Z,3.22
2023-04-25T20:24:02.280Z,3.92
2023-04-25T20:26:35.112Z,4.13
2023-04-25T20:29:09.876Z,3.60
2023-04-25T20:31:42.867Z,5.00
2023-04-25T20:34:15.751Z,4.25
2023-04-25T20:36:48.636Z,3.90
2023-04-25T20:39:21.929Z,5.10
2023-04-25T20:41:56.503Z,4.40
2023-04-25T20:44:30.741Z,4.13
2023-04-25T20:47:04.731Z,5.03
2023-04-25T20:49:37.758Z,4.68
2023-04-25T20:52:10.959Z,4.60
2023-04-25T20:54:44.220Z,4.78
2023-04-25T20:57:17.256Z,5.97
2023-04-25T20:59:51.537Z,5.32
2023-04-25T21:02:24.492Z,4.32
2023-04-25T21:04:57.464Z,4.30
2023-04-25T21:07:30.288Z,4.35
2023-04-25T21:10:03.097Z,3.80
2023-04-25T21:12:36.241Z,3.80
2023-04-25T21:18:43.961Z,4.97
2023-04-25T21:21:16.794Z,4.97
2023-04-25T21:23:49.849Z,4.68
2023-04-25T21:26:22.989Z,5.47
2023-04-25T21:28:55.835Z,4.18
2023-04-25T21:31:28.818Z,4.30
2023-04-25T21:34:03.101Z,4.50
2023-04-25T21:36:35.882Z,4.90
2023-04-25T21:39:10.783Z,4.53
2023-04-25T21:41:44.493Z,4.80
2023-04-25T21:44:18.260Z,5.43
2023-04-25T21:46:51.067Z,4.78
2023-04-25T21:49:29.520Z,4.28
2023-04-25T21:52:02.978Z,4.60
2023-04-25T21:54:36.854Z,4.25
2023-04-25T21:57:10.826Z,4.07
2023-04-25T21:59:44.793Z,4.50
2023-04-25T22:02:18.090Z,4.60
2023-04-25T22:04:52.587Z,4.88
2023-04-25T22:07:25.518Z,5.18
2023-04-25T22:09:58.704Z,5.05
2023-04-25T22:12:31.484Z,5.13
2023-04-25T22:15:05.649Z,5.25
2023-04-25T22:17:39.156Z,5.10
2023-04-25T22:20:14.426Z,5.07
2023-04-25T22:22:47.386Z,4.93
2023-04-25T22:25:21.255Z,4.40
2023-04-25T22:27:55.458Z,4.70
2023-04-25T22:30:31.005Z,5.03
2023-04-25T22:33:04.237Z,4.72
2023-04-25T22:35:38.572Z,4.85
2023-04-25T22:38:11.483Z,4.45
2023-04-25T22:40:47.902Z,4.88
2023-04-25T22:43:21.346Z,6.30
2023-04-25T22:45:54.221Z,5.28
2023-04-25T22:48:27.130Z,5.50
2023-04-25T22:51:05.108Z,4.63
2023-04-25T22:53:39.929Z,4.88
2023-04-25T22:56:13.720Z,4.53
2023-04-25T22:58:46.706Z,4.75
2023-04-25T23:01:19.575Z,5.13
2023-04-25T23:03:53.234Z,4.82
2023-04-25T23:06:28.143Z,4.60
2023-04-25T23:09:00.983Z,4.82
2023-04-25T23:11:34.125Z,5.25
2023-04-25T23:14:06.927Z,4.22
2023-04-25T23:16:40.808Z,4.97
2023-04-25T23:19:14.578Z,4.70
2023-04-25T23:21:48.951Z,5.13
2023-04-25T23:24:22.156Z,4.88
2023-04-25T23:26:55.266Z,5.95
2023-04-25T23:29:28.162Z,4.68
2023-04-25T23:32:02.751Z,5.47
2023-04-25T23:34:35.990Z,5.95
2023-04-25T23:37:10.459Z,5.38
2023-04-25T23:39:48.665Z,5.10
2023-04-25T23:42:21.410Z,5.07
2023-04-25T23:44:54.252Z,4.95
2023-04-25T23:47:27.107Z,4.80
2023-04-25T23:49:59.933Z,5.20
2023-04-25T23:52:34.387Z,4.90
2023-04-25T23:55:08.196Z,4.75
2023-04-25T23:57:44.291Z,4.80
